Time;durP1;ratioP1;P1;durP2;ratioP2;P2;SDS_P1;SDS_P2;PMS_P1;PMS_P2;Temp;Humidity;BMP_temperature;BMP_pressure;BME280_temperature;BME280_humidity;BME280_pressure;Samples;Min_cycle;Max_cycle;Signal;HPM_P1;HPM_P2
2022/05/19 00:01:55;;;;;;;2.83;2.50;;;;;;;8.16;100.00;61677.09;5092649;28;20932;-73
2022/05/19 00:04:22;;;;;;;11.60;2.93;;;;;;;8.16;100.00;61674.53;5092650;28;20547;-72
2022/05/19 00:06:49;;;;;;;4.03;3.23;;;;;;;8.00;100.00;61659.97;5092533;28;20490;-73
2022/05/19 00:09:18;;;;;;;5.60;2.50;;;;;;;8.16;100.00;61677.09;5092278;28;20801;-72
2022/05/19 00:11:45;;;;;;;6.77;2.77;;;;;;;7.89;100.00;61642.63;5074426;28;20466;-72
2022/05/19 00:14:13;;;;;;;6.33;3.00;;;;;;;8.00;100.00;61656.91;5092455;28;21015;-73
2022/05/19 00:16:42;;;;;;;3.03;2.20;;;;;;;8.00;100.00;61659.44;5092474;28;20510;-72
2022/05/19 00:19:09;;;;;;;6.77;2.33;;;;;;;8.19;100.00;61677.22;5092389;28;20433;-72
2022/05/19 00:21:35;;;;;;;4.17;2.27;;;;;;;8.16;100.00;61674.00;5092387;28;21014;-71
2022/05/19 00:24:03;;;;;;;5.80;2.50;;;;;;;8.02;100.00;61662.13;5092744;28;20437;-73
2022/05/19 00:26:32;;;;;;;3.20;2.10;;;;;;;8.11;100.00;61671.22;5096244;28;20944;-73
2022/05/19 00:28:58;;;;;;;3.03;2.10;;;;;;;8.03;100.00;61660.66;5093785;28;20819;-72
2022/05/19 00:31:26;;;;;;;4.60;2.47;;;;;;;7.98;100.00;61652.25;5092494;28;20465;-73
2022/05/19 00:33:52;;;;;;;8.27;2.93;;;;;;;8.02;100.00;61659.03;5092083;28;20534;-73
2022/05/19 00:36:21;;;;;;;5.57;2.63;;;;;;;8.09;100.00;61669.06;5074016;28;20850;-73
2022/05/19 00:38:48;;;;;;;5.40;2.50;;;;;;;8.08;100.00;61665.47;5091864;28;20965;-73
2022/05/19 00:41:17;;;;;;;3.27;2.50;;;;;;;8.01;100.00;61658.50;5092021;28;20964;-73
2022/05/19 00:43:47;;;;;;;8.47;2.67;;;;;;;7.98;100.00;61654.78;5091864;28;21005;-72
2022/05/19 00:46:19;;;;;;;5.17;2.40;;;;;;;7.66;100.00;61621.66;5091976;28;20503;-73
2022/05/19 00:48:50;;;;;;;4.80;2.90;;;;;;;7.76;100.00;61631.28;5091788;28;20799;-73
2022/05/19 00:51:19;;;;;;;3.60;2.90;;;;;;;7.89;100.00;61648.22;5091846;28;20482;-73
2022/05/19 00:53:50;;;;;;;4.67;2.90;;;;;;;8.05;100.00;61659.72;5091673;28;20999;-72
2022/05/19 00:56:23;;;;;;;8.40;2.77;;;;;;;7.99;100.00;61655.84;5092236;28;20453;-72
2022/05/19 00:58:58;;;;;;;3.53;2.40;;;;;;;8.00;100.00;61661.97;5091703;28;20463;-72
2022/05/19 01:01:25;;;;;;;3.27;2.70;;;;;;;7.61;100.00;61613.25;5091473;28;20530;-73
2022/05/19 01:03:56;;;;;;;4.90;2.27;;;;;;;7.81;100.00;61636.63;5090707;28;20990;-73
2022/05/19 01:06:25;;;;;;;7.27;2.23;;;;;;;7.69;100.00;61624.84;5091965;28;20448;-73
2022/05/19 01:08:58;;;;;;;3.97;2.00;;;;;;;7.39;100.00;61592.28;5091600;28;20450;-71
2022/05/19 01:11:25;;;;;;;5.53;2.17;;;;;;;7.36;100.00;61589.63;5091707;28;20471;-73
2022/05/19 01:13:53;;;;;;;5.40;2.03;;;;;;;6.93;100.00;61546.25;5092805;28;20528;-72
2022/05/19 01:16:20;;;;;;;4.40;2.10;;;;;;;7.42;100.00;61596.03;5091524;28;21016;-73
2022/05/19 01:18:48;;;;;;;5.20;2.10;;;;;;;7.45;100.00;61599.22;5091518;28;20450;-73
2022/05/19 01:21:18;;;;;;;8.00;2.60;;;;;;;7.31;100.00;61583.75;5091536;28;20449;-73
2022/05/19 01:24:03;;;;;;;8.03;2.87;;;;;;;7.35;100.00;61588.00;5091452;28;20449;-73
2022/05/19 01:26:41;;;;;;;5.83;2.20;;;;;;;7.38;100.00;61589.22;5091477;28;20499;-73
2022/05/19 01:29:10;;;;;;;11.60;1.97;;;;;;;7.34;100.00;61587.50;5091458;28;20528;-72
2022/05/19 01:31:44;;;;;;;9.17;2.40;;;;;;;7.41;100.00;61597.50;5091507;28;20992;-71
2022/05/19 01:34:11;;;;;;;4.77;2.30;;;;;;;6.72;100.00;61526.38;5091306;28;20897;-73
2022/05/19 01:36:38;;;;;;;3.47;1.70;;;;;;;7.43;100.00;61597.09;5091511;28;20913;-72
2022/05/19 01:39:08;;;;;;;2.40;2.00;;;;;;;7.40;100.00;61591.38;5091241;28;20485;-73
2022/05/19 01:41:47;;;;;;;3.13;2.10;;;;;;;7.31;100.00;61583.75;5091546;28;20446;-74
2022/05/19 01:44:29;;;;;;;3.17;2.20;;;;;;;7.36;100.00;61587.09;5091370;28;20532;-72
2022/05/19 01:47:09;;;;;;;4.10;2.10;;;;;;;6.79;100.00;61531.84;5090732;28;21047;-72
2022/05/19 01:49:42;;;;;;;2.00;1.80;;;;;;;7.37;100.00;61590.69;5091360;28;20430;-73
2022/05/19 01:52:15;;;;;;;3.67;2.07;;;;;;;7.28;100.00;61580.53;5091694;28;20450;-72
2022/05/19 01:54:49;;;;;;;2.87;2.10;;;;;;;7.33;100.00;61585.88;5091269;28;20536;-72
2022/05/19 01:57:25;;;;;;;4.73;1.77;;;;;;;7.38;100.00;61591.22;5091559;28;21085;-72
2022/05/19 02:00:00;;;;;;;9.97;2.03;;;;;;;7.42;100.00;61593.50;5091466;28;20514;-72
2022/05/19 02:02:35;;;;;;;8.07;1.80;;;;;;;7.43;100.00;61599.09;5091151;28;20959;-73
2022/05/19 02:05:08;;;;;;;1.93;1.70;;;;;;;7.43;100.00;61597.09;5091123;28;20450;-73
2022/05/19 02:07:38;;;;;;;9.43;2.10;;;;;;;7.28;100.00;61581.09;5091006;28;20445;-72
2022/05/19 02:10:08;;;;;;;4.17;2.10;;;;;;;7.33;100.00;61586.41;5090711;28;20544;-73
2022/05/19 02:12:44;;;;;;;6.07;2.10;;;;;;;7.35;100.00;61583.47;5091348;28;20445;-72
2022/05/19 02:15:14;;;;;;;4.50;1.87;;;;;;;7.25;100.00;61577.88;5091783;28;20487;-72
2022/05/19 02:17:43;;;;;;;3.97;2.00;;;;;;;6.90;100.00;61540.53;5094734;28;20449;-72
2022/05/19 02:20:14;;;;;;;5.73;2.10;;;;;;;6.88;100.00;61538.38;5094612;28;20863;-72
2022/05/19 02:22:43;;;;;;;2.53;1.90;;;;;;;6.76;100.00;61525.59;5094894;28;20438;-72
2022/05/19 02:25:17;;;;;;;4.07;2.23;;;;;;;6.54;100.00;61502.09;5076672;28;20438;-73
2022/05/19 02:27:50;;;;;;;2.97;2.20;;;;;;;5.97;100.00;61441.84;5094686;28;20449;-73
2022/05/19 02:30:21;;;;;;;4.80;1.90;;;;;;;6.66;100.00;61514.91;5094531;28;20820;-72
2022/05/19 02:32:48;;;;;;;2.37;2.17;;;;;;;6.13;100.00;61458.38;5094578;28;20480;-74
2022/05/19 02:35:16;;;;;;;7.80;2.00;;;;;;;7.00;100.00;61555.72;5094462;28;20485;-73
2022/05/19 02:37:46;;;;;;;3.07;2.17;;;;;;;7.06;100.00;61560.13;5094255;28;20441;-72
2022/05/19 02:40:15;;;;;;;6.90;2.20;;;;;;;7.13;100.00;61565.06;5094033;28;20475;-72
2022/05/19 02:42:42;;;;;;;4.93;2.60;;;;;;;7.11;100.00;61562.94;5094286;28;20437;-72
2022/05/19 02:45:12;;;;;;;8.53;1.87;;;;;;;7.07;100.00;61560.66;5094119;28;20449;-72
2022/05/19 02:47:39;;;;;;;6.87;3.80;;;;;;;6.75;100.00;61527.03;5094460;28;20433;-72
2022/05/19 02:50:08;;;;;;;4.17;3.10;;;;;;;7.05;100.00;61551.47;5094282;28;20445;-73
2022/05/19 02:52:35;;;;;;;5.70;3.40;;;;;;;7.09;100.00;61560.25;5094056;28;20449;-72
2022/05/19 02:55:02;;;;;;;5.93;3.57;;;;;;;7.23;100.00;61573.22;5093815;28;20542;-72
2022/05/19 02:57:29;;;;;;;6.87;4.23;;;;;;;7.28;100.00;61583.63;5094177;28;20507;-73
2022/05/19 02:59:56;;;;;;;15.17;4.90;;;;;;;7.37;100.00;61590.16;5093979;28;20453;-72
2022/05/19 03:02:25;;;;;;;9.93;6.50;;;;;;;7.23;100.00;61575.75;5094519;28;20445;-72
2022/05/19 03:04:52;;;;;;;12.17;7.47;;;;;;;6.95;100.00;61547.84;5093703;28;20433;-72
2022/05/19 03:07:20;;;;;;;17.00;7.10;;;;;;;7.33;100.00;61585.88;5093772;28;20496;-73
2022/05/19 03:09:48;;;;;;;11.73;5.93;;;;;;;7.30;100.00;61582.69;5093781;28;20588;-73
2022/05/19 03:12:16;;;;;;;9.13;6.77;;;;;;;7.22;100.00;61574.69;5093630;28;20475;-72
2022/05/19 03:14:45;;;;;;;12.47;5.87;;;;;;;7.47;100.00;61598.84;5093433;28;20531;-72
2022/05/19 03:17:12;;;;;;;9.10;5.13;;;;;;;7.52;100.00;61601.09;5093545;28;21013;-72
2022/05/19 03:19:40;;;;;;;8.03;4.53;;;;;;;7.74;100.00;61629.13;5097039;28;20467;-71
2022/05/19 03:22:07;;;;;;;12.53;4.23;;;;;;;7.58;100.00;61610.03;5094530;28;20560;-73
2022/05/19 03:24:36;;;;;;;9.07;5.43;;;;;;;7.64;100.00;61621.53;5093323;28;20499;-74
2022/05/19 03:27:03;;;;;;;11.93;5.20;;;;;;;7.58;100.00;61612.59;5092376;28;20499;-74
2022/05/19 03:29:30;;;;;;;9.90;4.90;;;;;;;7.25;100.00;61577.88;5093691;28;20438;-72
2022/05/19 03:31:59;;;;;;;11.90;4.57;;;;;;;7.67;100.00;61622.19;5093139;28;20496;-73
2022/05/19 03:34:26;;;;;;;12.77;5.07;;;;;;;7.51;100.00;61605.63;5093239;28;20512;-72
2022/05/19 03:36:55;;;;;;;7.43;5.43;;;;;;;7.88;100.00;61642.09;5093033;28;20441;-73
2022/05/19 03:39:22;;;;;;;12.13;6.13;;;;;;;7.18;100.00;61567.88;5092782;28;20477;-72
2022/05/19 03:41:49;;;;;;;10.17;6.27;;;;;;;7.51;100.00;61605.63;5092900;28;20807;-72
2022/05/19 03:44:18;;;;;;;8.07;5.23;;;;;;;7.78;100.00;61633.41;5092846;28;20453;-74
2022/05/19 03:46:45;;;;;;;4.47;3.60;;;;;;;7.47;100.00;61601.38;5093085;28;20495;-73
2022/05/19 03:49:13;;;;;;;4.10;3.33;;;;;;;7.42;100.00;61596.03;5092880;28;20450;-73
2022/05/19 03:51:42;;;;;;;12.23;3.30;;;;;;;7.24;100.00;61576.81;5092743;28;20441;-73
2022/05/19 03:54:11;;;;;;;5.30;3.33;;;;;;;7.11;100.00;61562.94;5092984;28;20473;-71
2022/05/19 03:56:38;;;;;;;9.43;3.97;;;;;;;7.55;100.00;61604.31;5093174;28;20499;-73
2022/05/19 03:59:06;;;;;;;8.97;6.07;;;;;;;7.60;100.00;61615.25;5092904;28;20446;-73
2022/05/19 04:01:33;;;;;;;12.50;5.47;;;;;;;7.80;100.00;61638.06;5092748;28;20861;-72
2022/05/19 04:04:00;;;;;;;7.30;5.30;;;;;;;8.00;100.00;61656.91;5092783;28;20449;-72
2022/05/19 04:06:27;;;;;;;11.20;5.40;;;;;;;8.16;100.00;61674.00;5092899;28;20448;-72
2022/05/19 04:08:55;;;;;;;7.20;5.23;;;;;;;8.25;100.00;61681.13;5092848;28;20442;-74
2022/05/19 04:11:24;;;;;;;8.13;4.40;;;;;;;8.22;100.00;61680.41;5092766;28;20442;-72
2022/05/19 04:13:51;;;;;;;6.83;3.07;;;;;;;8.14;100.00;61674.41;5092627;28;20434;-72
2022/05/19 04:16:17;;;;;;;6.93;2.53;;;;;;;8.29;100.00;61693.53;5092483;28;20510;-72
2022/05/19 04:18:44;;;;;;;6.87;2.70;;;;;;;8.09;100.00;61667.06;5092205;28;20499;-73
2022/05/19 04:21:11;;;;;;;9.77;2.50;;;;;;;8.61;100.00;61726.69;5092260;28;20864;-73
2022/05/19 04:23:40;;;;;;;5.87;3.00;;;;;;;8.65;100.00;61720.78;5092651;28;20455;-72
2022/05/19 04:26:07;;;;;;;9.20;3.40;;;;;;;8.87;100.00;61749.94;5092275;28;20442;-73
2022/05/19 04:28:36;;;;;;;9.47;6.50;;;;;;;9.05;100.00;61769.19;5092174;28;20799;-74
2022/05/19 04:31:03;;;;;;;10.77;5.77;;;;;;;9.18;100.00;61783.09;5091975;28;20524;-72
2022/05/19 04:33:30;;;;;;;7.67;6.00;;;;;;;9.27;100.00;61787.66;5091969;28;20908;-71
2022/05/19 04:35:58;;;;;;;9.27;5.70;;;;;;;9.50;100.00;61816.78;5091785;28;20845;-72
2022/05/19 04:38:25;;;;;;;11.37;6.20;;;;;;;9.57;100.00;61819.19;5092143;28;20507;-73
2022/05/19 04:40:52;;;;;;;11.23;5.50;;;;;;;9.55;100.00;61821.59;5092073;28;20526;-72
2022/05/19 04:43:22;;;;;;;6.33;5.43;;;;;;;9.88;100.00;61854.41;5091984;28;20195;-74
2022/05/19 04:45:52;;;;;;;9.20;5.23;;;;;;;10.03;100.00;61873.00;5091698;28;20449;-72
2022/05/19 04:48:19;;;;;;;12.97;6.40;;;;;;;10.10;100.00;61886.13;5091712;28;20491;-72
2022/05/19 04:50:46;;;;;;;10.10;5.80;;;;;;;10.11;100.00;61879.56;5092224;28;20498;-71
2022/05/19 04:53:13;;;;;;;12.87;5.80;;;;;;;10.28;100.00;61894.16;5091788;28;20437;-74
2022/05/19 04:55:41;;;;;;;10.63;5.70;;;;;;;10.32;100.00;61901.53;5091424;28;20253;-73
2022/05/19 04:58:09;;;;;;;11.30;4.67;;;;;;;10.62;100.00;61941.31;5091731;28;20453;-72
2022/05/19 05:00:36;;;;;;;9.20;5.33;;;;;;;10.58;100.00;61931.91;5091451;28;20653;-72
2022/05/19 05:03:07;;;;;;;9.90;4.73;;;;;;;10.87;100.00;61962.44;5091618;28;20228;-73
2022/05/19 05:05:34;;;;;;;9.13;5.00;;;;;;;11.03;100.00;61974.50;5091160;28;20208;-73
2022/05/19 05:08:02;;;;;;;9.73;4.60;;;;;;;10.77;100.00;61954.28;5091358;28;20669;-72
2022/05/19 05:10:29;;;;;;;5.03;4.23;;;;;;;11.11;100.00;61980.00;5091701;28;20678;-72
2022/05/19 05:12:56;;;;;;;11.00;4.33;;;;;;;11.44;100.00;62025.56;5091580;28;20199;-72
2022/05/19 05:15:23;;;;;;;9.27;4.20;;;;;;;11.41;100.00;62019.81;5091758;28;20226;-74
2022/05/19 05:17:50;;;;;;;8.57;4.33;;;;;;;11.28;100.00;62003.84;5091916;28;20200;-73
2022/05/19 05:20:18;;;;;;;5.97;3.87;;;;;;;11.24;100.00;62001.56;5091477;28;20253;-73
2022/05/19 05:22:45;;;;;;;6.60;4.57;;;;;;;11.03;100.00;61982.69;5091507;28;20203;-73
2022/05/19 05:25:15;;;;;;;11.07;4.40;;;;;;;11.11;100.00;61982.53;5092787;28;20280;-72
2022/05/19 05:27:42;;;;;;;10.73;4.73;;;;;;;11.37;100.00;62018.06;5092329;28;20209;-71
2022/05/19 05:30:11;;;;;;;10.27;4.73;;;;;;;11.15;100.00;61997.03;5091495;28;20195;-72
2022/05/19 05:32:39;;;;;;;21.77;4.77;;;;;;;11.25;100.00;62000.09;5090446;28;20227;-72
2022/05/19 05:35:08;;;;;;;13.20;5.50;;;;;;;11.12;100.00;61988.69;5091653;28;20223;-72
2022/05/19 05:37:36;;;;;;;8.70;4.93;;;;;;;10.80;100.00;61955.50;5091555;28;20278;-73
2022/05/19 05:40:04;;;;;;;8.20;4.70;;;;;;;10.92;100.00;61968.34;5091444;28;20234;-72
2022/05/19 05:42:31;;;;;;;7.50;5.60;;;;;;;11.30;100.00;62008.00;5091764;28;20199;-72
2022/05/19 05:44:57;;;;;;;15.07;6.23;;;;;;;11.69;100.00;62052.91;5091255;28;20227;-73
2022/05/19 05:47:24;;;;;;;14.53;5.40;;;;;;;11.42;100.00;62020.88;5091439;28;20199;-72
2022/05/19 05:49:51;;;;;;;4.97;4.40;;;;;;;12.06;100.00;62089.53;5091224;28;20607;-72
2022/05/19 05:52:18;;;;;;;9.60;5.50;;;;;;;11.62;100.00;62044.88;5095285;28;20200;-73
2022/05/19 05:54:46;;;;;;;8.00;5.33;;;;;;;12.42;100.00;62122.50;5094854;28;20223;-71
2022/05/19 05:57:14;;;;;;;12.80;5.90;;;;;;;12.73;100.00;62161.44;5095296;28;20256;-72
2022/05/19 05:59:42;;;;;;;7.57;5.83;;;;;;;12.92;100.00;62175.66;5094954;28;20210;-71
2022/05/19 06:02:08;;;;;;;7.40;6.23;;;;;;;13.02;100.00;62191.50;5094941;28;20203;-73
2022/05/19 06:04:41;;;;;;;10.50;6.97;;;;;;;13.38;100.00;62232.75;5095068;28;20192;-73
2022/05/19 06:07:08;;;;;;;10.80;6.73;;;;;;;13.54;100.00;62244.81;5095205;28;20272;-72
2022/05/19 06:09:35;;;;;;;10.63;6.60;;;;;;;13.61;100.00;62249.78;5094976;28;20233;-72
2022/05/19 06:12:04;;;;;;;10.43;6.90;;;;;;;13.87;100.00;62282.28;5094996;28;20309;-71
2022/05/19 06:14:31;;;;;;;11.13;6.80;;;;;;;13.76;100.00;62271.03;5094592;28;20231;-73
2022/05/19 06:16:58;;;;;;;14.60;7.50;;;;;;;13.91;100.00;62292.25;5094732;28;20658;-72
2022/05/19 06:19:24;;;;;;;12.47;7.20;;;;;;;13.78;100.00;62270.63;5094819;28;20199;-71
2022/05/19 06:21:51;;;;;;;13.67;7.33;;;;;;;13.89;100.00;62285.00;5094360;28;20199;-73
2022/05/19 06:24:18;;;;;;;19.97;7.87;;;;;;;14.09;100.00;62303.91;5094902;28;20261;-73
2022/05/19 06:26:45;;;;;;;11.20;7.23;;;;;;;14.11;100.00;62308.63;5094949;28;20199;-72
2022/05/19 06:29:15;;;;;;;16.23;7.93;;;;;;;14.33;100.00;62331.75;5094612;28;20203;-72
2022/05/19 06:31:41;;;;;;;17.27;8.63;;;;;;;14.56;100.00;62358.53;5094354;28;20241;-73
2022/05/19 06:34:10;;;;;;;14.07;8.47;;;;;;;14.60;100.00;62355.13;5094356;28;20207;-73
2022/05/19 06:36:37;;;;;;;12.77;8.03;;;;;;;14.83;100.00;62382.44;5094128;28;20778;-72
2022/05/19 06:39:03;;;;;;;9.80;7.80;;;;;;;14.83;100.00;62385.03;5093808;28;20721;-72
2022/05/19 06:44:17;;;;;;;11.80;8.33;;;;;;;15.00;100.00;62403.28;5094327;28;20264;-72
2022/05/19 06:46:45;;;;;;;15.90;9.23;;;;;;;14.90;100.00;62389.97;5093727;28;20670;-72
2022/05/19 06:49:12;;;;;;;12.23;8.63;;;;;;;15.09;100.00;62410.94;5094017;28;20199;-73
2022/05/19 06:51:39;;;;;;;10.17;7.83;;;;;;;15.59;100.00;62466.81;5093907;28;20207;-74
2022/05/19 06:54:06;;;;;;;12.10;8.37;;;;;;;15.79;100.00;62483.22;5094430;28;20199;-73
2022/05/19 06:56:35;;;;;;;9.20;8.27;;;;;;;15.81;100.00;62493.09;5093973;28;20292;-72
2022/05/19 06:59:02;;;;;;;12.77;8.30;;;;;;;15.66;100.00;62471.78;5093792;28;20196;-73
2022/05/19 07:01:31;;;;;;;10.67;8.93;;;;;;;14.94;100.00;62391.72;5093131;28;20199;-72
2022/05/19 07:03:58;;;;;;;12.10;8.27;;;;;;;15.45;100.00;62454.31;5093072;28;20249;-73
2022/05/19 07:06:25;;;;;;;11.77;7.90;;;;;;;15.00;100.00;62403.84;5093854;28;20203;-72
2022/05/19 07:08:52;;;;;;;15.57;8.77;;;;;;;15.61;100.00;62471.53;5093760;28;20210;-73
2022/05/19 07:11:25;;;;;;;17.57;8.63;;;;;;;15.69;100.00;62477.59;5093690;28;20257;-73
2022/05/19 07:13:53;;;;;;;11.23;8.53;;;;;;;15.88;100.00;62498.03;5093620;28;20195;-73
2022/05/19 07:16:20;;;;;;;15.27;7.70;;;;;;;16.13;100.00;62523.88;5093304;28;20227;-73
2022/05/19 07:18:49;;;;;;;16.70;8.40;;;;;;;16.39;100.00;62551.91;5093691;28;20250;-72
2022/05/19 07:21:18;;;;;;;11.77;7.87;;;;;;;16.17;100.00;62530.75;5093747;28;20248;-72
2022/05/19 07:23:46;;;;;;;14.00;7.97;;;;;;;16.08;100.00;62513.91;5093336;28;20256;-73
2022/05/19 07:26:13;;;;;;;12.93;7.70;;;;;;;16.43;100.00;62559.31;5093424;28;20204;-72
2022/05/19 07:28:40;;;;;;;14.70;8.40;;;;;;;16.59;100.00;62573.47;5094406;28;20195;-72
2022/05/19 07:31:07;;;;;;;11.70;7.17;;;;;;;16.87;100.00;62606.22;5093775;28;20666;-73
2022/05/19 07:33:36;;;;;;;16.23;7.73;;;;;;;16.34;100.00;62544.47;5093310;28;20251;-72
2022/05/19 07:36:08;;;;;;;10.83;7.73;;;;;;;15.96;100.00;62503.53;5092922;28;20300;-73
2022/05/19 07:38:35;;;;;;;13.80;7.33;;;;;;;16.24;100.00;62533.19;5093447;28;20253;-73
2022/05/19 07:41:02;;;;;;;12.77;6.93;;;;;;;16.45;100.00;62560.94;5092997;28;20284;-73
2022/05/19 07:43:37;;;;;;;14.77;7.63;;;;;;;16.95;100.00;62612.25;5093068;28;20210;-73
2022/05/19 07:46:05;;;;;;;13.97;7.57;;;;;;;16.85;100.00;62598.91;5092977;28;20685;-73
2022/05/19 07:48:32;;;;;;;11.73;7.43;;;;;;;16.57;100.00;62569.28;5093022;28;20199;-73
2022/05/19 07:50:58;;;;;;;21.90;7.80;;;;;;;17.11;100.00;62632.09;5092945;28;20200;-73
2022/05/19 07:53:27;;;;;;;11.20;6.70;;;;;;;17.20;100.00;62641.81;5092842;28;20210;-73
2022/05/19 07:55:53;;;;;;;16.97;7.47;;;;;;;17.17;100.00;62640.59;5092870;28;20227;-72
2022/05/19 07:58:21;;;;;;;14.73;6.57;;;;;;;16.78;100.00;62591.38;5092668;28;20252;-72
2022/05/19 08:00:47;;;;;;;7.50;4.53;;;;;;;16.95;100.00;62614.84;5092785;28;20200;-74
2022/05/19 08:03:15;;;;;;;30.47;6.10;;;;;;;17.01;100.00;62618.72;5092861;28;20212;-73
2022/05/19 08:05:42;;;;;;;19.10;6.03;;;;;;;17.16;100.00;62636.94;5092603;28;20204;-72
2022/05/19 08:08:08;;;;;;;13.77;6.00;;;;;;;18.16;100.00;62739.13;5092678;28;20233;-72
2022/05/19 08:10:37;;;;;;;14.07;5.70;;;;;;;17.90;100.00;62714.19;5092544;28;20666;-73
2022/05/19 08:15:50;;;;;;;13.13;6.13;;;;;;;18.44;100.00;62771.97;5092347;28;20226;-71
2022/05/19 08:18:19;;;;;;;10.47;5.63;;;;;;;17.98;100.00;62724.88;5092219;28;20195;-72
2022/05/19 08:20:49;;;;;;;10.07;5.97;;;;;;;18.57;100.00;62786.00;5092147;28;20192;-72
2022/05/19 08:23:18;;;;;;;12.67;5.40;;;;;;;19.08;100.00;62841.06;5092242;28;20199;-72
2022/05/19 08:25:47;;;;;;;13.93;4.90;;;;;;;18.68;100.00;62800.44;5092217;28;20207;-73
2022/05/19 08:28:16;;;;;;;13.00;5.43;;;;;;;18.52;100.00;62781.13;5092189;28;20200;-73
2022/05/19 08:30:47;;;;;;;8.27;4.80;;;;;;;19.13;100.00;62846.47;5092295;28;20295;-73
2022/05/19 08:33:14;;;;;;;10.50;4.90;;;;;;;19.19;100.00;62852.94;5092001;28;20273;-74
2022/05/19 08:35:41;;;;;;;6.93;4.00;;;;;;;18.98;100.00;62827.69;5091762;28;20231;-72
2022/05/19 08:38:09;;;;;;;5.97;2.97;;;;;;;18.83;100.00;62813.53;5092095;28;20245;-71
2022/05/19 08:40:44;;;;;;;7.50;2.90;;;;;;;18.99;100.00;62833.94;5092073;28;20281;-72
2022/05/19 08:43:16;;;;;;;5.43;2.27;;;;;;;18.78;100.00;62803.50;5091926;28;20191;-72
2022/05/19 08:45:47;;;;;;;2.77;2.17;;;;;;;19.01;100.00;62830.94;5091803;28;20188;-73
2022/05/19 08:48:19;;;;;;;45.47;6.00;;;;;;;19.56;100.00;62889.28;5091797;28;20283;-73
2022/05/19 08:50:50;;;;;;;28.87;5.43;;;;;;;19.78;100.00;62913.06;5091578;28;20252;-72
2022/05/19 08:53:18;;;;;;;5.87;2.30;;;;;;;19.70;100.00;62907.53;5091609;28;20666;-72
2022/05/19 08:55:48;;;;;;;5.20;1.70;;;;;;;19.50;100.00;62885.38;5091368;28;20231;-73
2022/05/19 08:58:34;;;;;;;2.23;1.73;;;;;;;19.85;100.00;62920.63;5092088;28;20229;-72
2022/05/19 09:01:05;;;;;;;6.60;1.90;;;;;;;19.67;100.00;62903.75;5091788;28;20290;-73
2022/05/19 09:03:38;;;;;;;4.13;2.10;;;;;;;20.24;100.00;62965.38;5091801;28;20211;-73
2022/05/19 09:06:25;;;;;;;1.93;1.57;;;;;;;19.83;100.00;62915.88;5091483;28;20199;-72
2022/05/19 09:09:05;;;;;;;5.77;1.40;;;;;;;20.81;100.00;63027.03;5091174;28;20248;-73
2022/05/19 09:11:40;;;;;;;4.00;1.50;;;;;;;20.05;100.00;62944.81;5091189;28;20658;-74
2022/05/19 09:14:19;;;;;;;3.90;1.60;;;;;;;20.80;100.00;63022.81;5091206;28;20282;-73
2022/05/19 09:16:48;;;;;;;2.53;2.00;;;;;;;20.99;100.00;63040.78;5091045;28;20586;-71
2022/05/19 09:19:18;;;;;;;5.47;1.80;;;;;;;21.01;100.00;63042.94;5091458;28;20199;-73
2022/05/19 09:21:47;;;;;;;4.33;2.13;;;;;;;21.30;100.00;63079.00;5091116;28;20622;-72
2022/05/19 09:24:14;;;;;;;4.30;1.50;;;;;;;21.38;100.00;63082.47;5091232;28;20203;-75
2022/05/19 09:26:48;;;;;;;3.00;1.50;;;;;;;21.42;100.00;63091.97;5094554;28;20700;-72
2022/05/19 09:29:18;;;;;;;2.50;1.90;;;;;;;21.91;100.00;63139.31;5095334;28;20256;-73
2022/05/19 09:31:50;;;;;;;6.50;1.90;;;;;;;21.78;100.00;63133.53;5095585;28;20211;-72
2022/05/19 09:34:18;;;;;;;5.90;2.17;;;;;;;21.67;100.00;63113.88;5097771;28;20268;-74
2022/05/19 09:37:00;;;;;;;9.93;1.93;;;;;;;21.52;100.00;63103.34;5095028;28;20646;-73
2022/05/19 09:39:33;;;;;;;6.27;2.03;;;;;;;21.79;100.00;63132.56;5095037;28;20719;-72
2022/05/19 09:42:06;;;;;;;5.27;2.10;;;;;;;22.01;100.00;63155.88;5095278;28;20200;-73
2022/05/19 09:44:38;;;;;;;5.67;2.03;;;;;;;21.94;95.09;63145.69;5095372;28;20287;-73
2022/05/19 09:47:28;;;;;;;1.97;1.67;;;;;;;21.63;78.76;63114.72;5094947;28;20203;-73
2022/05/19 09:50:02;;;;;;;3.87;1.50;;;;;;;21.10;82.03;63054.75;5087256;28;20282;-73
2022/05/19 09:52:32;;;;;;;3.07;1.50;;;;;;;20.95;84.75;63041.63;5095313;28;20200;-72
2022/05/19 09:55:02;;;;;;;4.90;1.90;;;;;;;20.68;89.91;63012.97;5095072;28;20206;-73
2022/05/19 09:57:39;;;;;;;4.90;1.80;;;;;;;21.08;96.57;63050.00;5095102;28;20292;-73
2022/05/19 10:00:26;;;;;;;5.57;2.30;;;;;;;20.69;82.09;63008.31;5094916;28;20210;-72
2022/05/19 10:02:56;;;;;;;3.87;1.97;;;;;;;20.74;91.01;63016.88;5094949;28;20195;-73
2022/05/19 10:05:36;;;;;;;4.27;1.90;;;;;;;20.74;87.91;63019.47;5094781;28;20246;-73
2022/05/19 10:08:07;;;;;;;7.53;1.80;;;;;;;20.60;90.52;63003.78;5094257;28;20199;-73
2022/05/19 10:10:36;;;;;;;3.20;1.83;;;;;;;21.23;90.68;63071.41;5094605;28;20204;-73
2022/05/19 10:13:10;;;;;;;4.23;1.97;;;;;;;21.30;83.79;63079.00;5094290;28;20199;-72
2022/05/19 10:15:53;;;;;;;4.90;1.60;;;;;;;21.52;77.91;63102.81;5094683;28;20195;-74
2022/05/19 10:18:40;;;;;;;4.60;1.67;;;;;;;21.99;79.72;63153.72;5094564;28;20196;-72
2022/05/19 10:21:20;;;;;;;6.93;2.30;;;;;;;22.26;87.26;63182.94;5094356;28;20325;-73
2022/05/19 10:24:08;;;;;;;5.00;1.80;;;;;;;22.00;72.61;63154.78;5094770;28;20275;-73
2022/05/19 10:26:45;;;;;;;4.47;1.70;;;;;;;22.14;85.76;63169.97;5094862;28;20264;-73
2022/05/19 10:32:40;;;;;;;3.30;1.40;;;;;;;22.01;84.01;63150.69;5094545;28;20272;-71
2022/05/19 10:35:15;;;;;;;4.10;1.80;;;;;;;22.42;73.52;63197.13;5094267;28;20276;-72
2022/05/19 10:37:53;;;;;;;4.10;1.90;;;;;;;21.98;73.99;63152.63;5093597;28;20223;-72
2022/05/19 10:40:33;;;;;;;3.33;1.90;;;;;;;22.92;72.05;63253.94;5094172;28;20231;-73
2022/05/19 10:43:10;;;;;;;1.57;1.43;;;;;;;23.05;67.64;63265.44;5094108;28;20290;-73
2022/05/19 10:45:40;;;;;;;5.23;1.70;;;;;;;23.28;73.07;63287.75;5094092;28;20681;-72
2022/05/19 10:48:40;;;;;;;2.90;1.50;;;;;;;22.11;71.31;63164.13;5093548;28;20305;-72
2022/05/19 10:51:12;;;;;;;3.87;1.60;;;;;;;21.82;69.14;63135.31;5089331;28;20195;-72
2022/05/19 10:53:55;;;;;;;3.83;1.50;;;;;;;21.42;73.33;63092.53;5094350;28;20203;-72
2022/05/19 10:56:47;;;;;;;4.87;1.50;;;;;;;22.14;83.39;63167.34;5075838;28;20580;-72
2022/05/19 10:59:34;;;;;;;2.07;1.50;;;;;;;22.90;72.79;63249.19;5094302;28;20268;-72
2022/05/19 11:02:17;;;;;;;8.07;1.87;;;;;;;23.38;71.04;63300.69;5093983;28;20639;-72
2022/05/19 11:05:12;;;;;;;4.40;1.77;;;;;;;23.77;66.21;63345.03;5093767;28;20666;-73
2022/05/19 11:07:49;;;;;;;2.13;1.50;;;;;;;23.49;59.88;63315.78;5093763;28;20287;-72
2022/05/19 11:10:25;;;;;;;4.10;1.87;;;;;;;23.26;60.48;63290.28;5094027;28;20195;-71
2022/05/19 11:13:03;;;;;;;5.70;1.80;;;;;;;23.45;65.52;63308.28;5093713;28;20256;-73
2022/05/19 11:15:39;;;;;;;3.90;1.90;;;;;;;22.43;61.51;63196.19;5093687;28;20249;-72
2022/05/19 11:18:13;;;;;;;7.00;2.20;;;;;;;23.19;68.43;63282.66;5093798;28;20248;-72
2022/05/19 11:20:54;;;;;;;6.07;1.97;;;;;;;23.20;63.01;63278.56;5093841;28;20199;-72
2022/05/19 11:23:25;;;;;;;1.97;1.80;;;;;;;23.03;61.48;63267.94;5093522;28;20208;-73
2022/05/19 11:28:48;;;;;;;3.33;1.97;;;;;;;22.30;73.12;63187.28;5093583;28;20199;-73
2022/05/19 11:31:19;;;;;;;8.83;1.90;;;;;;;22.83;70.29;63238.44;5093238;28;20665;-73
2022/05/19 11:33:52;;;;;;;4.70;1.60;;;;;;;23.60;65.28;63327.16;5093356;28;20627;-73
2022/05/19 11:36:27;;;;;;;3.27;1.53;;;;;;;23.65;60.19;63327.38;5093171;28;20233;-72
2022/05/19 11:39:01;;;;;;;2.70;1.60;;;;;;;23.73;57.12;63341.25;5094076;28;20230;-73
2022/05/19 11:41:35;;;;;;;3.73;1.73;;;;;;;23.57;57.11;63320.75;5093386;28;20196;-72
2022/05/19 11:44:10;;;;;;;6.93;1.90;;;;;;;24.17;58.28;63389.00;5093011;28;20199;-73
2022/05/19 11:46:45;;;;;;;1.83;1.57;;;;;;;24.20;57.92;63387.06;5092785;28;20207;-73
2022/05/19 11:55:14;;;;;;;4.93;1.73;;;;;;;23.06;55.03;63269.13;5092997;28;20215;-73
2022/05/19 11:57:46;;;;;;;6.77;1.83;;;;;;;23.39;56.69;63299.72;5093011;28;20239;-71
2022/05/19 12:00:20;;;;;;;2.77;1.70;;;;;;;23.61;54.24;63325.63;5092846;28;20211;-73